Time;durP1;ratioP1;P1;durP2;ratioP2;P2;SDS_P1;SDS_P2;PMS_P1;PMS_P2;Temp;Humidity;BMP_temperature;BMP_pressure;BME280_temperature;BME280_humidity;BME280_pressure;Samples;Min_cycle;Max_cycle;Signal;HPM_P1;HPM_P2
2023/07/06 00:01:22;;;;;;;12.18;2.70;;;;;;;;;;5069054;27;98898;-74
2023/07/06 00:03:50;;;;;;;5.45;3.22;;;;;;;;;;5066997;27;99363;-75
2023/07/06 00:06:16;;;;;;;12.23;3.33;;;;;;;;;;5066193;27;98805;-75
2023/07/06 00:08:43;;;;;;;4.88;3.15;;;;;;;;;;5066354;27;100243;-73
2023/07/06 00:11:09;;;;;;;8.10;3.08;;;;;;;;;;5066761;27;100112;-73
2023/07/06 00:13:40;;;;;;;6.07;3.17;;;;;;;;;;5066408;27;99897;-74
2023/07/06 00:16:07;;;;;;;6.93;3.40;;;;;;;;;;5080533;27;98734;-75
2023/07/06 00:18:34;;;;;;;9.27;3.10;;;;;;;;;;5087020;27;100681;-75
2023/07/06 00:21:00;;;;;;;7.78;3.30;;;;;;;;;;5083351;27;100080;-75
2023/07/06 00:23:28;;;;;;;9.35;3.42;;;;;;;;;;5068942;27;100199;-74
2023/07/06 00:25:54;;;;;;;8.45;3.33;;;;;;;;;;5066137;27;99987;-74
2023/07/06 00:28:28;;;;;;;11.65;3.53;;;;;;;;;;5065626;27;98762;-74
2023/07/06 00:31:01;;;;;;;5.68;3.40;;;;;;;;;;5066338;27;99539;-75
2023/07/06 00:33:28;;;;;;;9.15;3.78;;;;;;;;;;5048348;27;100001;-74
2023/07/06 00:35:55;;;;;;;9.52;3.65;;;;;;;;;;5066101;27;99370;-75
2023/07/06 00:38:23;;;;;;;4.40;3.50;;;;;;;;;;5048284;27;99307;-74
2023/07/06 00:40:51;;;;;;;5.07;3.33;;;;;;;;;;5048690;27;100016;-74
2023/07/06 00:43:20;;;;;;;8.25;3.03;;;;;;;;;;5050673;27;99655;-75
2023/07/06 00:45:50;;;;;;;5.78;3.17;;;;;;;;;;5053563;27;100046;-75
2023/07/06 00:48:20;;;;;;;5.82;3.42;;;;;;;;;;5086334;27;99739;-75
2023/07/06 00:50:51;;;;;;;7.68;3.13;;;;;;;;;;5067813;27;99669;-74
2023/07/06 00:53:19;;;;;;;11.02;3.38;;;;;;;;;;5068226;27;99945;-74
2023/07/06 00:55:47;;;;;;;10.40;3.35;;;;;;;;;;5058869;27;101599;-74
2023/07/06 00:58:34;;;;;;;4.43;3.55;;;;;;;;;;5065464;27;99225;-74
2023/07/06 01:01:02;;;;;;;8.27;3.67;;;;;;;;;;5065633;27;100825;-74
2023/07/06 01:03:29;;;;;;;11.55;4.30;;;;;;;;;;5087077;27;98754;-74
2023/07/06 01:05:59;;;;;;;12.07;4.85;;;;;;;;;;5069722;27;101756;-76
2023/07/06 01:08:28;;;;;;;12.13;4.82;;;;;;;;;;5068333;27;99813;-76
2023/07/06 01:10:56;;;;;;;18.85;4.72;;;;;;;;;;5085887;27;100481;-74
2023/07/06 01:13:24;;;;;;;11.63;4.80;;;;;;;;;;5051595;27;100697;-73
2023/07/06 01:16:04;;;;;;;4.85;4.07;;;;;;;;;;5047732;27;100759;-74
2023/07/06 01:18:51;;;;;;;4.90;3.95;;;;;;;;;;5066089;27;99309;-74
2023/07/06 01:21:21;;;;;;;12.85;4.80;;;;;;;;;;5051876;27;98693;-74
2023/07/06 01:23:50;;;;;;;9.90;4.37;;;;;;;;;;5066404;27;99638;-75
2023/07/06 01:26:19;;;;;;;11.05;4.28;;;;;;;;;;5065114;27;100494;-74
2023/07/06 01:29:04;;;;;;;8.77;4.30;;;;;;;;;;5070408;27;98906;-75
2023/07/06 01:31:30;;;;;;;14.40;4.68;;;;;;;;;;5068281;27;98838;-75
2023/07/06 01:34:05;;;;;;;11.13;4.50;;;;;;;;;;5065898;27;98978;-75
2023/07/06 01:36:38;;;;;;;9.40;4.00;;;;;;;;;;5070028;27;98941;-74
2023/07/06 01:39:04;;;;;;;;;;;;;;;;;;5050635;27;100257;-75
2023/07/06 01:41:31;;;;;;;13.63;4.72;;;;;;;;;;5050124;27;113016;-74
2023/07/06 01:43:58;;;;;;;13.05;4.05;;;;;;;;;;5049990;27;99973;-74
2023/07/06 01:46:24;;;;;;;14.68;5.97;;;;;;;;;;5071884;27;99067;-74
2023/07/06 01:48:51;;;;;;;7.03;4.85;;;;;;;;;;5050495;27;98898;-73
2023/07/06 01:51:24;;;;;;;7.38;4.75;;;;;;;;;;5054205;27;101983;-73
2023/07/06 01:53:58;;;;;;;9.98;4.38;;;;;;;;;;5069110;27;99013;-75
2023/07/06 01:56:48;;;;;;;8.20;4.60;;;;;;;;;;5051437;27;99980;-75
2023/07/06 01:59:17;;;;;;;16.60;5.03;;;;;;;;;;5069845;27;100485;-74
2023/07/06 02:01:46;;;;;;;12.63;4.65;;;;;;;;;;5051941;27;101781;-73
2023/07/06 02:04:13;;;;;;;15.25;4.68;;;;;;;;;;5069979;27;99243;-73
2023/07/06 02:06:41;;;;;;;7.45;4.20;;;;;;;;;;5069281;27;99120;-74
2023/07/06 02:09:13;;;;;;;13.00;5.07;;;;;;;;;;5068270;27;98791;-74
2023/07/06 02:11:39;;;;;;;11.63;4.80;;;;;;;;;;5068999;27;100294;-74
2023/07/06 02:14:06;;;;;;;10.68;4.70;;;;;;;;;;5053282;27;102060;-74
2023/07/06 02:16:34;;;;;;;14.80;4.63;;;;;;;;;;5064871;27;99586;-74
2023/07/06 02:19:03;;;;;;;5.15;3.90;;;;;;;;;;5089113;27;99378;-74
2023/07/06 02:21:32;;;;;;;9.32;4.40;;;;;;;;;;5088482;27;99511;-75
2023/07/06 02:23:59;;;;;;;8.07;4.45;;;;;;;;;;5089058;27;99322;-73
2023/07/06 02:26:26;;;;;;;10.40;5.25;;;;;;;;;;5089668;27;99198;-74
2023/07/06 02:28:52;;;;;;;7.28;3.92;;;;;;;;;;5088211;27;99284;-74
2023/07/06 02:31:19;;;;;;;7.15;3.90;;;;;;;;;;5088762;27;99393;-73
2023/07/06 02:33:45;;;;;;;12.32;4.90;;;;;;;;;;5088616;27;99175;-74
2023/07/06 02:36:12;;;;;;;10.32;4.03;;;;;;;;;;5090655;27;99056;-73
2023/07/06 02:38:39;;;;;;;8.00;3.95;;;;;;;;;;5069392;27;99266;-74
2023/07/06 02:41:06;;;;;;;8.98;4.32;;;;;;;;;;5070202;27;99989;-75
2023/07/06 02:43:33;;;;;;;9.43;4.30;;;;;;;;;;5087618;27;99042;-74
2023/07/06 02:46:02;;;;;;;11.90;3.95;;;;;;;;;;5081384;27;98352;-75
2023/07/06 02:48:29;;;;;;;9.57;4.05;;;;;;;;;;5049789;27;98985;-74
2023/07/06 02:50:57;;;;;;;6.47;3.75;;;;;;;;;;5049143;27;99586;-74
2023/07/06 02:53:24;;;;;;;7.85;3.60;;;;;;;;;;5049260;27;102692;-75
2023/07/06 02:55:54;;;;;;;11.40;4.40;;;;;;;;;;5072551;27;98672;-75
2023/07/06 02:58:21;;;;;;;16.60;4.00;;;;;;;;;;5066932;27;99242;-75
2023/07/06 03:00:50;;;;;;;8.40;4.43;;;;;;;;;;5080707;27;99992;-74
2023/07/06 03:03:16;;;;;;;7.07;4.10;;;;;;;;;;5088435;27;98883;-74
2023/07/06 03:05:44;;;;;;;7.75;4.30;;;;;;;;;;5088121;27;99010;-74
2023/07/06 03:08:10;;;;;;;12.27;4.03;;;;;;;;;;5088589;27;98736;-74
2023/07/06 03:10:38;;;;;;;8.57;3.80;;;;;;;;;;5069431;27;101620;-74
2023/07/06 03:13:06;;;;;;;14.23;4.43;;;;;;;;;;5048665;27;99383;-74
2023/07/06 03:15:32;;;;;;;11.00;4.20;;;;;;;;;;5068134;27;98675;-75
2023/07/06 03:18:00;;;;;;;10.25;4.18;;;;;;;;;;5069776;27;99875;-75
2023/07/06 03:20:26;;;;;;;13.88;4.68;;;;;;;;;;5049417;27;100091;-74
2023/07/06 03:22:55;;;;;;;11.57;4.10;;;;;;;;;;5049281;27;100764;-74
2023/07/06 03:25:23;;;;;;;9.32;4.30;;;;;;;;;;5066803;27;99018;-75
2023/07/06 03:27:50;;;;;;;12.35;4.70;;;;;;;;;;5049886;27;99943;-74
2023/07/06 03:30:18;;;;;;;6.55;4.05;;;;;;;;;;5066598;27;99334;-74
2023/07/06 03:32:45;;;;;;;8.45;4.18;;;;;;;;;;5066354;27;99500;-74
2023/07/06 03:35:12;;;;;;;12.73;4.25;;;;;;;;;;5067971;27;98711;-75
2023/07/06 03:37:39;;;;;;;6.65;3.95;;;;;;;;;;5067453;27;99415;-74
2023/07/06 03:40:10;;;;;;;8.30;3.80;;;;;;;;;;5051609;27;100092;-73
2023/07/06 03:42:42;;;;;;;14.40;4.40;;;;;;;;;;5048451;27;100052;-73
2023/07/06 03:45:13;;;;;;;11.65;6.18;;;;;;;;;;5031808;27;101182;-73
2023/07/06 03:47:42;;;;;;;8.07;3.90;;;;;;;;;;5068721;27;100087;-73
2023/07/06 03:50:12;;;;;;;9.15;3.90;;;;;;;;;;5087631;27;99929;-73
2023/07/06 03:52:39;;;;;;;11.43;4.35;;;;;;;;;;5086623;27;99727;-75
2023/07/06 03:55:12;;;;;;;8.45;4.40;;;;;;;;;;5087436;27;100336;-75
2023/07/06 03:57:39;;;;;;;;;;;;;;;;;;5088394;27;99823;-73
2023/07/06 04:00:18;;;;;;;7.72;3.53;;;;;;;;;;5086420;27;110765;-74
2023/07/06 04:02:45;;;;;;;8.35;4.20;;;;;;;;;;5089735;27;99657;-75
2023/07/06 04:05:12;;;;;;;10.85;4.85;;;;;;;;;;5085664;27;99272;-74
2023/07/06 04:07:40;;;;;;;7.05;3.92;;;;;;;;;;5086431;27;100007;-73
2023/07/06 04:10:07;;;;;;;4.32;3.58;;;;;;;;;;5087147;27;100825;-74
2023/07/06 04:12:37;;;;;;;8.27;4.63;;;;;;;;;;5087428;27;100484;-74
2023/07/06 04:15:06;;;;;;;12.85;4.50;;;;;;;;;;5045656;27;100751;-76
2023/07/06 04:17:36;;;;;;;9.45;4.57;;;;;;;;;;5044015;27;99901;-75
2023/07/06 04:20:19;;;;;;;9.02;3.83;;;;;;;;;;5044990;27;99606;-74
2023/07/06 04:22:47;;;;;;;16.23;3.97;;;;;;;;;;5045685;27;99938;-75
2023/07/06 04:25:18;;;;;;;9.77;4.15;;;;;;;;;;5049706;27;98938;-72
2023/07/06 04:27:44;;;;;;;10.57;5.45;;;;;;;;;;5046345;27;99895;-73
2023/07/06 04:30:12;;;;;;;16.25;4.30;;;;;;;;;;5045429;27;100361;-73
2023/07/06 04:32:38;;;;;;;8.88;4.70;;;;;;;;;;5045681;27;101282;-74
2023/07/06 04:35:06;;;;;;;12.35;4.30;;;;;;;;;;5043894;27;100166;-74
2023/07/06 04:37:33;;;;;;;15.60;4.80;;;;;;;;;;5029454;27;99931;-74
2023/07/06 04:40:01;;;;;;;11.68;4.57;;;;;;;;;;5025634;27;100862;-74
2023/07/06 04:42:28;;;;;;;7.13;4.10;;;;;;;;;;5024772;27;99086;-73
2023/07/06 04:44:55;;;;;;;8.07;4.43;;;;;;;;;;5029620;27;99036;-73
2023/07/06 04:47:23;;;;;;;15.60;5.18;;;;;;;;;;5044416;27;100016;-73
2023/07/06 04:49:50;;;;;;;13.77;4.70;;;;;;;;;;5045928;27;100223;-74
2023/07/06 04:52:16;;;;;;;9.77;4.32;;;;;;;;;;5045875;27;100555;-73
2023/07/06 04:54:43;;;;;;;14.93;4.45;;;;;;;;;;5027817;27;100147;-73
2023/07/06 04:57:13;;;;;;;6.57;4.00;;;;;;;;;;5024330;28;99598;-74
2023/07/06 04:59:40;;;;;;;10.10;4.78;;;;;;;;;;5025238;27;99316;-73
2023/07/06 05:02:07;;;;;;;9.73;4.85;;;;;;;;;;5046935;27;98881;-74
2023/07/06 05:04:34;;;;;;;10.35;4.05;;;;;;;;;;5047898;27;100240;-75
2023/07/06 05:07:00;;;;;;;18.85;5.25;;;;;;;;;;5050898;27;100143;-74
2023/07/06 05:09:28;;;;;;;10.55;4.68;;;;;;;;;;5046865;27;99358;-75
2023/07/06 05:11:56;;;;;;;9.63;4.70;;;;;;;;;;5040369;27;99799;-75
2023/07/06 05:14:23;;;;;;;17.88;4.82;;;;;;;;;;5060246;27;100546;-74
2023/07/06 05:16:50;;;;;;;20.35;4.50;;;;;;;;;;5088581;27;99363;-73
2023/07/06 05:19:17;;;;;;;7.57;4.65;;;;;;;;;;5082623;27;99484;-73
2023/07/06 05:21:43;;;;;;;11.68;4.53;;;;;;;;;;5081750;27;99672;-75
2023/07/06 05:24:11;;;;;;;9.38;4.22;;;;;;;;;;5088354;27;100005;-74
2023/07/06 05:26:38;;;;;;;15.38;4.93;;;;;;;;;;5076537;27;99164;-73
2023/07/06 05:29:05;;;;;;;10.23;4.45;;;;;;;;;;5078811;27;101298;-74
2023/07/06 05:31:31;;;;;;;8.40;4.30;;;;;;;;;;5084764;27;100307;-73
2023/07/06 05:33:58;;;;;;;11.05;4.32;;;;;;;;;;5077097;27;100092;-74
2023/07/06 05:36:24;;;;;;;17.92;3.97;;;;;;;;;;5089831;27;99825;-75
2023/07/06 05:38:51;;;;;;;8.82;4.22;;;;;;;;;;5068821;27;99448;-73
2023/07/06 05:41:17;;;;;;;12.60;4.78;;;;;;;;;;5083293;27;99241;-72
2023/07/06 05:43:44;;;;;;;12.00;4.43;;;;;;;;;;5072087;27;99027;-73
2023/07/06 05:46:10;;;;;;;19.63;4.65;;;;;;;;;;5087288;27;100902;-73
2023/07/06 05:48:37;;;;;;;17.02;4.90;;;;;;;;;;5085309;27;98881;-74
2023/07/06 05:51:03;;;;;;;10.23;4.63;;;;;;;;;;5088861;27;100316;-74
2023/07/06 05:53:32;;;;;;;10.15;4.60;;;;;;;;;;5074057;27;99046;-74
2023/07/06 05:55:59;;;;;;;10.45;4.43;;;;;;;;;;5068758;27;100217;-73
2023/07/06 05:58:26;;;;;;;12.73;5.20;;;;;;;;;;5076996;27;100296;-75
2023/07/06 06:00:53;;;;;;;9.38;4.50;;;;;;;;;;5073669;27;99891;-75
2023/07/06 06:03:20;;;;;;;11.05;4.75;;;;;;;;;;5087918;27;99963;-75
2023/07/06 06:05:49;;;;;;;16.90;5.15;;;;;;;;;;5087920;27;100249;-74
2023/07/06 06:08:18;;;;;;;13.07;5.47;;;;;;;;;;5083300;27;99741;-74
2023/07/06 06:10:45;;;;;;;17.02;4.93;;;;;;;;;;5071711;27;99330;-74
2023/07/06 06:13:11;;;;;;;11.70;5.20;;;;;;;;;;5075749;27;100152;-74
2023/07/06 06:15:38;;;;;;;13.82;5.00;;;;;;;;;;5068511;27;99782;-73
2023/07/06 06:18:04;;;;;;;13.77;4.80;;;;;;;;;;5080063;27;99401;-74
2023/07/06 06:20:31;;;;;;;11.63;4.65;;;;;;;;;;5086607;27;98577;-73
2023/07/06 06:22:58;;;;;;;11.00;5.22;;;;;;;;;;5084528;27;99785;-74
2023/07/06 06:25:25;;;;;;;10.85;5.20;;;;;;;;;;5084583;27;100436;-73
2023/07/06 06:27:52;;;;;;;8.45;4.68;;;;;;;;;;5088053;27;98067;-74
2023/07/06 06:30:19;;;;;;;12.90;5.40;;;;;;;;;;5085789;27;98605;-74
2023/07/06 06:32:45;;;;;;;14.55;5.95;;;;;;;;;;5083439;27;100122;-75
2023/07/06 06:35:38;;;;;;;14.68;5.38;;;;;;;;;;5069200;27;99300;-75
2023/07/06 06:38:05;;;;;;;10.48;5.90;;;;;;;;;;5066450;27;100324;-73
2023/07/06 06:40:33;;;;;;;11.38;5.40;;;;;;;;;;5086567;27;99941;-73
2023/07/06 06:43:00;;;;;;;22.52;6.80;;;;;;;;;;5078696;27;99991;-75
2023/07/06 06:45:27;;;;;;;14.13;5.78;;;;;;;;;;5068417;27;99919;-73
2023/07/06 06:47:53;;;;;;;15.93;5.57;;;;;;;;;;5070107;27;99880;-73
2023/07/06 06:50:20;;;;;;;11.40;6.10;;;;;;;;;;5066823;27;100475;-73
2023/07/06 06:52:48;;;;;;;16.20;6.60;;;;;;;;;;5068759;27;98820;-74
2023/07/06 06:55:14;;;;;;;13.23;5.63;;;;;;;;;;5070074;27;98855;-76
2023/07/06 06:57:41;;;;;;;17.35;6.30;;;;;;;;;;5067554;27;100553;-75
2023/07/06 07:00:13;;;;;;;11.15;5.22;;;;;;;;;;5067654;27;100224;-73
2023/07/06 07:02:41;;;;;;;13.05;5.82;;;;;;;;;;5067104;27;100576;-76
2023/07/06 07:05:10;;;;;;;14.65;5.78;;;;;;;;;;5066618;27;99470;-76
2023/07/06 07:07:41;;;;;;;14.73;5.55;;;;;;;;;;5067153;27;98862;-75
2023/07/06 07:10:09;;;;;;;14.85;5.90;;;;;;;;;;5065023;27;99437;-74
2023/07/06 07:12:37;;;;;;;13.63;5.63;;;;;;;;;;5066771;27;99189;-75
2023/07/06 07:15:04;;;;;;;11.77;5.60;;;;;;;;;;5067611;27;100272;-73
2023/07/06 07:17:31;;;;;;;10.15;5.22;;;;;;;;;;5070377;27;98956;-75
2023/07/06 07:19:57;;;;;;;13.60;5.43;;;;;;;;;;5067420;27;100275;-73
2023/07/06 07:22:24;;;;;;;9.35;5.70;;;;;;;;;;5067944;27;100213;-74
2023/07/06 07:24:51;;;;;;;8.68;5.28;;;;;;;;;;5066457;27;101041;-73
2023/07/06 07:27:18;;;;;;;11.98;5.65;;;;;;;;;;5067987;27;99921;-74
2023/07/06 07:29:47;;;;;;;9.57;4.97;;;;;;;;;;5066943;27;99015;-74
2023/07/06 07:32:14;;;;;;;9.45;5.97;;;;;;;;;;5065522;27;99276;-74
2023/07/06 07:34:40;;;;;;;9.13;5.43;;;;;;;;;;5072308;27;99197;-74
2023/07/06 07:37:13;;;;;;;11.70;5.07;;;;;;;;;;5077903;27;101809;-74
2023/07/06 07:39:41;;;;;;;12.93;4.80;;;;;;;;;;5077469;27;100282;-74
2023/07/06 07:42:08;;;;;;;8.77;4.80;;;;;;;;;;5087646;27;100099;-74
2023/07/06 07:44:34;;;;;;;9.70;4.13;;;;;;;;;;5075868;27;100826;-74
2023/07/06 07:47:02;;;;;;;7.88;3.97;;;;;;;;;;5078099;27;99295;-70
2023/07/06 07:49:29;;;;;;;7.72;4.43;;;;;;;;;;5087172;27;99948;-69
2023/07/06 07:51:56;;;;;;;8.30;4.70;;;;;;;;;;5081932;27;99668;-71
2023/07/06 07:54:23;;;;;;;7.75;4.30;;;;;;;;;;5066480;27;98979;-73
2023/07/06 07:56:53;;;;;;;7.13;4.05;;;;;;;;;;5082036;27;99891;-71
2023/07/06 07:59:23;;;;;;;10.38;3.67;;;;;;;;;;5086794;27;100698;-72
2023/07/06 08:17:00;;;;;;;7.28;3.38;;;;;;;;;;5067949;27;98459;-71
2023/07/06 08:19:27;;;;;;;6.85;3.10;;;;;;;;;;5065050;27;100212;-77
2023/07/06 08:22:14;;;;;;;4.63;2.78;;;;;;;;;;5064957;27;98332;-73
2023/07/06 08:24:40;;;;;;;11.35;3.28;;;;;;;;;;5065574;27;99278;-75
2023/07/06 08:27:07;;;;;;;7.13;3.03;;;;;;;;;;5065948;27;100576;-75
2023/07/06 08:29:33;;;;;;;6.05;2.75;;;;;;;;;;5059382;27;98756;-76
2023/07/06 08:32:00;;;;;;;9.35;2.75;;;;;;;;;;5046218;27;98843;-73
2023/07/06 08:34:26;;;;;;;4.57;2.75;;;;;;;;;;5062883;27;98854;-74
2023/07/06 08:36:54;;;;;;;5.72;3.00;;;;;;;;;;5070693;27;98231;-75
2023/07/06 08:39:21;;;;;;;6.10;2.80;;;;;;;;;;5065924;27;99805;-74
2023/07/06 08:41:48;;;;;;;5.07;2.30;;;;;;;;;;5064679;27;98183;-74
2023/07/06 08:44:15;;;;;;;7.22;2.67;;;;;;;;;;5067136;27;99104;-74
2023/07/06 08:46:47;;;;;;;5.00;2.80;;;;;;;;;;5064909;27;100020;-74
2023/07/06 08:49:20;;;;;;;4.05;2.90;;;;;;;;;;5066731;27;98254;-74
2023/07/06 08:51:48;;;;;;;12.02;3.05;;;;;;;;;;5066064;27;99424;-74
2023/07/06 08:54:22;;;;;;;7.32;2.90;;;;;;;;;;5066380;27;100157;-74
2023/07/06 08:56:49;;;;;;;8.93;3.13;;;;;;;;;;5063716;27;100332;-74
2023/07/06 08:59:34;;;;;;;5.13;2.88;;;;;;;;;;5062784;27;99543;-75
2023/07/06 09:02:08;;;;;;;6.47;3.03;;;;;;;;;;5066126;27;98312;-75
2023/07/06 09:04:35;;;;;;;6.40;2.58;;;;;;;;;;5066681;27;98426;-75
2023/07/06 09:07:02;;;;;;;9.45;3.20;;;;;;;;;;5065205;27;100106;-75
2023/07/06 09:09:28;;;;;;;6.60;2.70;;;;;;;;;;5067337;27;98184;-76
2023/07/06 09:11:57;;;;;;;9.73;3.05;;;;;;;;;;5065520;27;98791;-74
2023/07/06 09:14:28;;;;;;;5.85;3.40;;;;;;;;;;5062651;27;99871;-77
2023/07/06 09:16:56;;;;;;;12.98;2.80;;;;;;;;;;5026537;27;98356;-76
2023/07/06 09:19:24;;;;;;;6.03;2.67;;;;;;;;;;5029234;27;98499;-74
2023/07/06 09:21:53;;;;;;;5.38;2.67;;;;;;;;;;5018194;28;100069;-76
2023/07/06 09:24:27;;;;;;;6.18;3.00;;;;;;;;;;5012579;28;99185;-75
2023/07/06 09:26:58;;;;;;;6.15;2.50;;;;;;;;;;5017130;28;100227;-75
2023/07/06 09:29:30;;;;;;;6.83;2.70;;;;;;;;;;5028189;27;98261;-75
2023/07/06 09:32:11;;;;;;;4.70;2.33;;;;;;;;;;5032953;27;99280;-76
2023/07/06 09:34:41;;;;;;;7.22;2.70;;;;;;;;;;5032600;27;98812;-75
2023/07/06 09:37:11;;;;;;;4.63;2.40;;;;;;;;;;5033762;27;98285;-75
2023/07/06 09:39:38;;;;;;;6.97;2.72;;;;;;;;;;5036994;27;98226;-77
2023/07/06 09:42:07;;;;;;;7.18;3.15;;;;;;;;;;5035286;27;100276;-74
2023/07/06 09:44:34;;;;;;;9.73;2.72;;;;;;;;;;5033207;27;98231;-75
2023/07/06 09:47:03;;;;;;;6.85;2.35;;;;;;;;;;5014842;28;99510;-77
2023/07/06 09:49:37;;;;;;;5.93;2.28;;;;;;;;;;5011515;28;98185;-75
2023/07/06 09:52:08;;;;;;;5.43;2.25;;;;;;;;;;5012519;28;99543;-75
2023/07/06 09:54:54;;;;;;;2.72;1.95;;;;;;;;;;5011618;28;99033;-77
2023/07/06 09:57:23;;;;;;;2.58;1.77;;;;;;;;;;5010804;28;101309;-76
2023/07/06 09:59:52;;;;;;;2.95;2.03;;;;;;;;;;5020927;28;98946;-76
2023/07/06 10:02:41;;;;;;;4.82;2.00;;;;;;;;;;5028865;27;98869;-76
2023/07/06 10:05:07;;;;;;;4.03;2.20;;;;;;;;;;5013881;28;98058;-76
2023/07/06 10:07:34;;;;;;;4.63;2.22;;;;;;;;;;5014363;28;99239;-75
2023/07/06 10:10:08;;;;;;;3.85;2.05;;;;;;;;;;5011185;28;98268;-74
2023/07/06 10:12:41;;;;;;;3.90;1.83;;;;;;;;;;5011802;28;98536;-74
2023/07/06 10:15:28;;;;;;;7.82;2.35;;;;;;;;;;5028382;27;99999;-75
2023/07/06 10:18:17;;;;;;;4.57;2.47;;;;;;;;;;5037745;27;98977;-75
2023/07/06 10:20:52;;;;;;;3.15;1.90;;;;;;;;;;5048531;27;98703;-74
2023/07/06 10:23:32;;;;;;;3.85;2.40;;;;;;;;;;5049917;27;98946;-74
2023/07/06 10:26:07;;;;;;;2.55;2.13;;;;;;;;;;5051972;27;98201;-74
2023/07/06 10:28:38;;;;;;;6.03;2.67;;;;;;;;;;5054099;27;98986;-76
2023/07/06 10:31:07;;;;;;;9.27;2.50;;;;;;;;;;5053587;27;98260;-75
2023/07/06 10:33:39;;;;;;;5.57;2.58;;;;;;;;;;5043956;27;99502;-77
2023/07/06 10:36:10;;;;;;;28.52;3.63;;;;;;;;;;5043789;27;99838;-74
2023/07/06 10:38:36;;;;;;;5.77;2.37;;;;;;;;;;5048783;27;98294;-75
2023/07/06 10:41:27;;;;;;;5.68;2.80;;;;;;;;;;5051427;27;98423;-74
2023/07/06 10:44:01;;;;;;;4.63;2.65;;;;;;;;;;5050878;27;98902;-74
2023/07/06 10:46:35;;;;;;;7.30;3.25;;;;;;;;;;5046272;27;100154;-75
2023/07/06 10:49:16;;;;;;;4.78;2.85;;;;;;;;;;5046683;27;98749;-75
2023/07/06 10:51:47;;;;;;;13.45;3.28;;;;;;;;;;5050539;27;99184;-74
2023/07/06 10:54:17;;;;;;;7.07;3.15;;;;;;;;;;5045376;27;99740;-73
2023/07/06 10:56:47;;;;;;;6.40;3.20;;;;;;;;;;5050682;27;100235;-73
2023/07/06 10:59:18;;;;;;;4.57;2.92;;;;;;;;;;5047974;27;98268;-73
2023/07/06 11:01:45;;;;;;;8.35;3.28;;;;;;;;;;5038849;27;98373;-74
2023/07/06 11:04:30;;;;;;;7.93;3.67;;;;;;;;;;5048977;27;99947;-74
2023/07/06 11:06:57;;;;;;;6.85;3.35;;;;;;;;;;5050077;27;99137;-74
2023/07/06 11:09:24;;;;;;;11.55;4.45;;;;;;;;;;5050888;27;98389;-75
2023/07/06 11:11:51;;;;;;;9.82;3.47;;;;;;;;;;5040751;27;100367;-74
2023/07/06 11:14:38;;;;;;;9.73;3.60;;;;;;;;;;5033555;27;98208;-74
2023/07/06 11:17:04;;;;;;;6.30;3.30;;;;;;;;;;5030446;28;99938;-74
2023/07/06 11:19:36;;;;;;;12.18;3.45;;;;;;;;;;5029608;27;98347;-74
2023/07/06 11:22:05;;;;;;;6.13;3.17;;;;;;;;;;5049466;27;98395;-74
2023/07/06 11:24:37;;;;;;;6.70;3.33;;;;;;;;;;5048871;27;99073;-74
2023/07/06 11:27:04;;;;;;;;;;;;;;;;;;5049564;27;98211;-76
2023/07/06 11:29:30;;;;;;;7.43;3.55;;;;;;;;;;5049712;27;111958;-75
2023/07/06 11:32:04;;;;;;;5.65;3.47;;;;;;;;;;5047514;27;99830;-75
2023/07/06 11:34:40;;;;;;;5.05;3.40;;;;;;;;;;5050449;27;98361;-76
2023/07/06 11:37:15;;;;;;;11.63;3.80;;;;;;;;;;5052069;27;99012;-76
2023/07/06 11:39:49;;;;;;;7.93;3.20;;;;;;;;;;5050620;27;98839;-74
2023/07/06 11:42:35;;;;;;;7.50;3.10;;;;;;;;;;5039829;27;98355;-76
2023/07/06 11:45:12;;;;;;;5.55;2.97;;;;;;;;;;5029678;27;100365;-75
2023/07/06 11:47:44;;;;;;;7.95;2.97;;;;;;;;;;5029401;27;98166;-76
2023/07/06 11:50:13;;;;;;;5.80;2.28;;;;;;;;;;5029910;28;98774;-75
2023/07/06 11:52:44;;;;;;;4.88;2.30;;;;;;;;;;5037289;27;100004;-75
2023/07/06 11:55:28;;;;;;;4.03;1.80;;;;;;;;;;5029396;27;98125;-75
2023/07/06 11:58:05;;;;;;;3.80;1.38;;;;;;;;;;5034414;27;98295;-75
2023/07/06 12:03:08;;;;;;;4.75;2.20;;;;;;;;;;5048494;27;98854;-75
2023/07/06 12:05:48;;;;;;;3.53;1.80;;;;;;;;;;5049593;27;100099;-75
2023/07/06 12:08:27;;;;;;;3.33;1.13;;;;;;;;;;5049070;27;98191;-75
2023/07/06 12:10:56;;;;;;;1.70;1.38;;;;;;;;;;5048738;27;99908;-75
2023/07/06 12:13:32;;;;;;;5.72;2.05;;;;;;;;;;5037515;27;99901;-75
2023/07/06 12:16:04;;;;;;;2.58;1.70;;;;;;;;;;5039041;27;99077;-74
2023/07/06 12:18:33;;;;;;;4.45;1.60;;;;;;;;;;5045834;27;99478;-75
2023/07/06 12:21:01;;;;;;;1.48;1.27;;;;;;;;;;5049159;27;99280;-76
2023/07/06 12:23:27;;;;;;;1.70;1.50;;;;;;;;;;5052795;27;99220;-76
2023/07/06 12:25:54;;;;;;;3.53;1.23;;;;;;;;;;5047303;27;99893;-74
2023/07/06 12:28:24;;;;;;;1.38;1.10;;;;;;;;;;5029877;27;98236;-76
2023/07/06 12:30:52;;;;;;;3.30;1.40;;;;;;;;;;5028412;27;99338;-75
2023/07/06 12:33:19;;;;;;;4.00;1.40;;;;;;;;;;5029259;28;100153;-75
2023/07/06 12:35:47;;;;;;;3.45;1.20;;;;;;;;;;5029229;28;98411;-77
2023/07/06 12:38:14;;;;;;;4.28;1.45;;;;;;;;;;5028412;27;98722;-77
2023/07/06 12:40:41;;;;;;;4.35;1.45;;;;;;;;;;5036353;27;99108;-77
2023/07/06 12:43:34;;;;;;;4.57;1.40;;;;;;;;;;5050726;27;98161;-76
2023/07/06 12:46:01;;;;;;;4.03;1.40;;;;;;;;;;5040154;27;100083;-74
2023/07/06 12:48:27;;;;;;;3.42;1.25;;;;;;;;;;5049272;27;98312;-76
2023/07/06 12:50:54;;;;;;;1.88;0.85;;;;;;;;;;5049437;27;99591;-76
2023/07/06 12:53:28;;;;;;;4.93;1.25;;;;;;;;;;5049851;27;99473;-77
2023/07/06 12:56:00;;;;;;;1.95;1.10;;;;;;;;;;5052160;27;98265;-77
2023/07/06 12:58:39;;;;;;;3.45;1.38;;;;;;;;;;5060050;27;99535;-77
2023/07/06 13:01:07;;;;;;;3.63;1.52;;;;;;;;;;5055505;27;99974;-77
2023/07/06 13:03:44;;;;;;;5.32;1.30;;;;;;;;;;5034983;27;98218;-76
2023/07/06 13:06:11;;;;;;;2.92;1.05;;;;;;;;;;5034854;27;99273;-76
2023/07/06 13:08:37;;;;;;;1.70;1.00;;;;;;;;;;5032386;27;98244;-77
2023/07/06 13:11:06;;;;;;;6.97;1.05;;;;;;;;;;5032555;27;99276;-76
2023/07/06 13:13:36;;;;;;;5.88;1.42;;;;;;;;;;5046528;27;98905;-77
2023/07/06 13:16:10;;;;;;;1.73;0.95;;;;;;;;;;5050529;27;98253;-77
2023/07/06 13:18:39;;;;;;;2.45;1.20;;;;;;;;;;5050720;27;99474;-75
2023/07/06 13:21:10;;;;;;;1.10;1.00;;;;;;;;;;5031955;27;99068;-77
2023/07/06 13:23:39;;;;;;;1.67;1.05;;;;;;;;;;5038496;27;98298;-76
2023/07/06 13:26:07;;;;;;;2.15;1.25;;;;;;;;;;5050209;27;99142;-76
2023/07/06 13:28:35;;;;;;;2.17;1.10;;;;;;;;;;5055242;27;99031;-75
2023/07/06 13:31:02;;;;;;;6.22;1.33;;;;;;;;;;5050555;27;99492;-76
2023/07/06 13:33:29;;;;;;;0.80;0.80;;;;;;;;;;5050466;27;99011;-76
2023/07/06 13:35:56;;;;;;;5.40;0.98;;;;;;;;;;5052031;27;98467;-77
2023/07/06 13:38:25;;;;;;;2.50;1.27;;;;;;;;;;5051231;27;99766;-76
2023/07/06 13:40:51;;;;;;;1.00;0.70;;;;;;;;;;5050768;27;100305;-76
2023/07/06 13:43:23;;;;;;;2.83;1.10;;;;;;;;;;5036791;27;98278;-76
2023/07/06 13:45:51;;;;;;;4.72;0.90;;;;;;;;;;5049628;27;98580;-77
2023/07/06 13:48:18;;;;;;;2.30;1.10;;;;;;;;;;5049940;27;100021;-75
2023/07/06 13:50:45;;;;;;;1.75;0.68;;;;;;;;;;5055062;27;98297;-78
2023/07/06 13:53:12;;;;;;;1.85;1.00;;;;;;;;;;5051570;27;100251;-78
2023/07/06 13:55:50;;;;;;;0.80;0.80;;;;;;;;;;5050001;27;98650;-77
2023/07/06 13:58:31;;;;;;;1.00;1.00;;;;;;;;;;5049070;27;98530;-77
2023/07/06 14:00:58;;;;;;;2.28;0.90;;;;;;;;;;5048936;27;99038;-76
2023/07/06 14:03:27;;;;;;;3.15;0.90;;;;;;;;;;5049997;27;98250;-76
2023/07/06 14:05:55;;;;;;;1.63;0.98;;;;;;;;;;5051541;27;99509;-77
2023/07/06 14:08:25;;;;;;;1.05;0.98;;;;;;;;;;5050522;27;99863;-76
2023/07/06 14:10:53;;;;;;;3.72;1.63;;;;;;;;;;5051123;27;98311;-76
2023/07/06 14:13:21;;;;;;;1.23;1.00;;;;;;;;;;5054812;27;98881;-76
2023/07/06 14:15:49;;;;;;;1.88;0.90;;;;;;;;;;5049026;27;98364;-76
2023/07/06 14:18:17;;;;;;;3.88;1.10;;;;;;;;;;5048984;27;98817;-76
2023/07/06 14:20:46;;;;;;;1.42;0.95;;;;;;;;;;5050042;27;98942;-77
2023/07/06 14:23:15;;;;;;;2.08;1.50;;;;;;;;;;5049824;27;98295;-78
2023/07/06 14:25:42;;;;;;;2.08;1.30;;;;;;;;;;5051005;27;98487;-75
2023/07/06 14:28:10;;;;;;;1.00;0.95;;;;;;;;;;5050556;27;98917;-77
2023/07/06 14:30:37;;;;;;;1.10;0.82;;;;;;;;;;5049684;27;98459;-76
2023/07/06 14:33:08;;;;;;;3.03;1.40;;;;;;;;;;5049220;27;98504;-76
2023/07/06 14:35:36;;;;;;;3.20;1.00;;;;;;;;;;5044486;27;99990;-76
2023/07/06 14:38:03;;;;;;;1.02;0.93;;;;;;;;;;5051093;27;99976;-77
2023/07/06 14:40:29;;;;;;;4.05;1.10;;;;;;;;;;5050303;27;100228;-76
2023/07/06 14:42:58;;;;;;;2.53;1.40;;;;;;;;;;5046506;27;98147;-75
2023/07/06 14:45:25;;;;;;;2.63;1.00;;;;;;;;;;5029884;28;99325;-76
2023/07/06 14:47:53;;;;;;;4.95;1.23;;;;;;;;;;5030240;28;99030;-76
2023/07/06 14:50:21;;;;;;;1.40;1.05;;;;;;;;;;5045287;27;98164;-76
2023/07/06 14:52:53;;;;;;;0.82;0.82;;;;;;;;;;5050034;27;98785;-76
2023/07/06 14:55:21;;;;;;;1.60;1.02;;;;;;;;;;5052766;27;99909;-76
2023/07/06 14:57:48;;;;;;;4.50;1.00;;;;;;;;;;5048470;27;98374;-76
2023/07/06 15:00:17;;;;;;;1.02;1.00;;;;;;;;;;5050111;27;99830;-76
2023/07/06 15:02:46;;;;;;;4.38;1.40;;;;;;;;;;5048230;27;98326;-75
2023/07/06 15:05:13;;;;;;;1.52;1.15;;;;;;;;;;5050076;27;98420;-76
2023/07/06 15:07:39;;;;;;;1.92;0.98;;;;;;;;;;5049421;27;100059;-76